Air Navigation Services of Czech Republic
Airport: LKBC Updated:  11.08.2020 00:25:24  UTC
 METAR LKBC 11.08. 00:30 ...
METAR LKBC 110030Z AUTO 04004KT 340V140 9999 -RA FEW086 BKN130 BKN150 18/16 Q1018=